createdAt,value
2023-06-05T00:02:17.561Z,6.60
2023-06-05T00:04:45.484Z,7.00
2023-06-05T00:07:13.323Z,6.50
2023-06-05T00:09:40.874Z,5.50
2023-06-05T00:12:08.795Z,7.10
2023-06-05T00:14:37.825Z,6.20
2023-06-05T00:17:08.125Z,7.03
2023-06-05T00:19:36.209Z,7.30
2023-06-05T00:22:03.797Z,7.70
2023-06-05T00:24:31.351Z,7.40
2023-06-05T00:26:59.313Z,7.23
2023-06-05T00:29:26.973Z,7.57
2023-06-05T00:31:55.288Z,7.60
2023-06-05T00:34:23.043Z,6.70
2023-06-05T00:36:51.776Z,7.60
2023-06-05T00:39:20.002Z,7.27
2023-06-05T00:41:47.881Z,6.90
2023-06-05T00:44:15.542Z,7.20
2023-06-05T00:46:43.626Z,7.33
2023-06-05T00:49:11.928Z,7.60
2023-06-05T00:51:42.423Z,6.77
2023-06-05T00:54:10.798Z,7.10
2023-06-05T00:56:40.337Z,7.40
2023-06-05T00:59:08.443Z,7.87
2023-06-05T01:01:37.189Z,6.70
2023-06-05T01:04:05.499Z,7.37
2023-06-05T01:06:34.943Z,7.43
2023-06-05T01:09:03.125Z,7.00
2023-06-05T01:11:37.160Z,6.70
2023-06-05T01:14:23.383Z,6.87
2023-06-05T01:16:54.462Z,8.00
2023-06-05T01:19:25.665Z,7.00
2023-06-05T01:21:53.661Z,6.23
2023-06-05T01:24:23.693Z,7.00
2023-06-05T01:26:54.754Z,7.17
2023-06-05T01:29:26.344Z,7.90
2023-06-05T01:31:58.087Z,7.20
2023-06-05T01:34:27.695Z,6.80
2023-06-05T01:36:56.503Z,7.53
2023-06-05T01:39:25.032Z,8.10
2023-06-05T01:41:53.560Z,7.10
2023-06-05T01:44:21.970Z,7.50
2023-06-05T01:46:50.858Z,7.27
2023-06-05T01:49:18.550Z,7.67
2023-06-05T01:51:47.128Z,7.00
2023-06-05T01:54:16.782Z,7.50
2023-06-05T01:56:44.734Z,7.23
2023-06-05T01:59:13.117Z,7.80
2023-06-05T02:01:40.754Z,6.60
2023-06-05T02:04:08.363Z,8.67
2023-06-05T02:06:42.318Z,7.50
2023-06-05T02:09:14.030Z,7.30
2023-06-05T02:11:43.491Z,8.07
2023-06-05T02:14:13.852Z,6.83
2023-06-05T02:16:41.958Z,7.23
2023-06-05T02:19:09.686Z,6.87
2023-06-05T02:21:37.907Z,7.93
2023-06-05T02:24:05.957Z,7.10
2023-06-05T02:26:33.599Z,8.47
2023-06-05T02:29:01.626Z,8.20
2023-06-05T02:31:30.097Z,8.20
2023-06-05T02:33:58.078Z,8.13
2023-06-05T02:36:26.205Z,7.80
2023-06-05T02:38:55.030Z,8.10
2023-06-05T02:41:23.614Z,7.63
2023-06-05T02:43:51.592Z,6.97
2023-06-05T02:46:19.657Z,6.80
2023-06-05T02:48:49.256Z,6.70
2023-06-05T02:51:16.820Z,7.03
2023-06-05T02:53:46.554Z,7.33
2023-06-05T02:56:17.438Z,7.40
2023-06-05T02:58:46.558Z,7.30
2023-06-05T03:01:15.478Z,7.37
2023-06-05T03:03:46.061Z,6.50
2023-06-05T03:06:13.780Z,7.33
2023-06-05T03:08:46.816Z,6.10
2023-06-05T03:11:19.029Z,7.37
2023-06-05T03:13:47.138Z,7.70
2023-06-05T03:16:15.029Z,8.27
2023-06-05T03:18:49.128Z,7.20
2023-06-05T03:21:16.904Z,8.60
2023-06-05T03:23:45.024Z,6.70
2023-06-05T03:26:15.017Z,7.90
2023-06-05T03:28:43.554Z,7.93
2023-06-05T03:31:13.048Z,7.07
2023-06-05T03:33:44.925Z,8.80
2023-06-05T03:36:13.304Z,8.97
2023-06-05T03:38:41.964Z,8.57
2023-06-05T03:41:10.253Z,8.60
2023-06-05T03:43:38.604Z,7.90
2023-06-05T03:46:06.480Z,8.60
2023-06-05T03:48:34.818Z,8.43
2023-06-05T03:51:02.510Z,8.80
2023-06-05T03:53:31.316Z,9.07
2023-06-05T03:56:00.581Z,8.30
2023-06-05T03:58:34.528Z,7.80
2023-06-05T04:01:03.585Z,8.20
2023-06-05T04:03:31.731Z,8.17
2023-06-05T04:05:59.440Z,8.10
2023-06-05T04:08:27.011Z,7.90
2023-06-05T04:10:54.651Z,8.13
2023-06-05T04:13:23.075Z,8.60
2023-06-05T04:15:50.875Z,8.30
2023-06-05T04:18:19.379Z,7.70
2023-06-05T04:20:49.674Z,8.17
2023-06-05T04:23:18.268Z,8.00
2023-06-05T04:25:46.922Z,8.23
2023-06-05T04:28:16.320Z,8.67
2023-06-05T04:30:46.893Z,9.10
2023-06-05T04:33:16.567Z,8.60
2023-06-05T04:35:44.403Z,9.47
2023-06-05T04:38:12.173Z,8.83
2023-06-05T04:40:39.744Z,10.40
2023-06-05T04:43:08.326Z,9.00
2023-06-05T04:45:36.245Z,8.57
2023-06-05T04:48:03.922Z,8.30
2023-06-05T04:50:31.957Z,9.30
2023-06-05T04:53:09.419Z,8.40
2023-06-05T04:55:38.008Z,10.63
2023-06-05T04:58:07.328Z,8.83
2023-06-05T05:00:35.010Z,9.07
2023-06-05T05:03:04.656Z,8.60
2023-06-05T05:05:32.848Z,9.73
2023-06-05T05:08:02.277Z,9.80
2023-06-05T05:10:30.729Z,9.87
2023-06-05T05:13:02.039Z,9.93
2023-06-05T05:15:30.002Z,9.67
2023-06-05T05:17:58.036Z,9.97
2023-06-05T05:20:26.893Z,8.13
2023-06-05T05:22:56.914Z,9.90
2023-06-05T05:25:25.203Z,9.17
2023-06-05T05:27:53.094Z,10.00
2023-06-05T05:30:20.889Z,10.70
2023-06-05T05:32:48.945Z,9.90
2023-06-05T05:35:17.616Z,8.80
2023-06-05T05:37:46.033Z,10.40
2023-06-05T05:40:14.484Z,9.70
2023-06-05T05:42:42.848Z,8.77
2023-06-05T05:45:12.291Z,9.43
2023-06-05T05:47:40.119Z,9.50
2023-06-05T05:50:07.948Z,10.30
2023-06-05T05:52:35.564Z,8.70
2023-06-05T05:55:04.541Z,9.60
2023-06-05T05:57:32.623Z,9.07
2023-06-05T06:00:01.300Z,8.90
2023-06-05T06:02:40.057Z,9.03
2023-06-05T06:05:08.179Z,8.60
2023-06-05T06:07:37.173Z,8.90
2023-06-05T06:10:04.873Z,9.00
2023-06-05T06:12:32.896Z,9.07
2023-06-05T06:15:01.203Z,9.80
2023-06-05T06:17:29.387Z,8.70
2023-06-05T06:19:58.882Z,8.87
2023-06-05T06:22:28.057Z,7.90
2023-06-05T06:24:56.377Z,7.87
2023-06-05T06:27:34.865Z,7.77
2023-06-05T06:30:04.126Z,7.73
2023-06-05T06:32:31.605Z,9.07
2023-06-05T06:34:58.854Z,8.60
2023-06-05T06:37:26.191Z,7.80
2023-06-05T06:39:53.442Z,8.17
2023-06-05T06:42:21.267Z,7.10
2023-06-05T06:45:02.038Z,7.13
2023-06-05T06:47:30.530Z,6.93
2023-06-05T06:49:57.826Z,6.60
2023-06-05T06:52:26.590Z,6.43
2023-06-05T06:54:53.934Z,5.97
2023-06-05T06:57:21.295Z,5.97
2023-06-05T06:59:48.981Z,6.03
2023-06-05T07:02:19.213Z,5.47
2023-06-05T07:04:47.006Z,6.17
2023-06-05T07:07:16.096Z,5.77
2023-06-05T07:09:44.589Z,5.80
2023-06-05T07:12:16.299Z,5.50
2023-06-05T07:14:43.976Z,4.60
2023-06-05T07:17:11.426Z,6.00
2023-06-05T07:19:39.408Z,5.53
2023-06-05T07:22:07.307Z,4.87
2023-06-05T07:24:39.834Z,4.43
2023-06-05T07:27:07.544Z,4.30
2023-06-05T07:29:34.944Z,4.93
2023-06-05T07:32:07.273Z,4.50
2023-06-05T07:34:38.018Z,3.90
2023-06-05T07:37:08.301Z,4.90
2023-06-05T07:39:36.123Z,4.73
2023-06-05T07:42:03.739Z,4.47
2023-06-05T07:44:31.407Z,4.43
2023-06-05T07:46:58.950Z,3.97
2023-06-05T07:49:26.573Z,3.90
2023-06-05T07:51:54.147Z,3.90
2023-06-05T07:54:23.413Z,3.90
2023-06-05T07:56:52.221Z,4.03
2023-06-05T07:59:25.634Z,3.67
2023-06-05T08:01:53.596Z,4.03
2023-06-05T08:04:22.919Z,3.80
2023-06-05T08:06:51.054Z,3.40
2023-06-05T08:09:19.414Z,3.73
2023-06-05T08:11:46.999Z,3.73
2023-06-05T08:14:14.571Z,4.00
2023-06-05T08:16:42.259Z,3.83
2023-06-05T08:19:09.828Z,3.43
2023-06-05T08:21:38.525Z,2.73
2023-06-05T08:24:07.427Z,3.07
2023-06-05T08:26:35.151Z,3.40
2023-06-05T08:29:03.703Z,3.30
2023-06-05T08:31:34.865Z,2.90
2023-06-05T08:34:02.544Z,2.63
2023-06-05T08:36:33.550Z,3.40
2023-06-05T08:39:01.134Z,2.93
2023-06-05T08:41:31.918Z,3.37
2023-06-05T08:43:59.677Z,3.33
2023-06-05T08:46:30.017Z,3.50
2023-06-05T08:48:58.724Z,3.37
2023-06-05T08:51:26.620Z,2.90
2023-06-05T08:54:01.778Z,3.20
2023-06-05T08:56:30.094Z,3.27
2023-06-05T08:58:58.324Z,3.17
2023-06-05T09:01:27.449Z,3.40
2023-06-05T09:03:55.020Z,3.07
2023-06-05T09:06:22.714Z,2.53
2023-06-05T09:08:50.693Z,3.37
2023-06-05T09:11:28.294Z,3.07
2023-06-05T09:13:56.792Z,2.63
2023-06-05T09:16:34.120Z,2.70
2023-06-05T09:19:01.771Z,3.40
2023-06-05T09:21:34.380Z,2.70
2023-06-05T09:24:08.632Z,2.93
2023-06-05T09:26:49.721Z,3.17
2023-06-05T09:29:24.653Z,2.43
2023-06-05T09:31:52.957Z,3.03
2023-06-05T09:34:28.224Z,3.03
2023-06-05T09:36:58.248Z,2.90
2023-06-05T09:39:27.299Z,3.27
2023-06-05T09:41:58.993Z,2.60
2023-06-05T09:44:27.476Z,2.50
2023-06-05T09:46:56.364Z,3.10
2023-06-05T09:49:27.830Z,2.50
2023-06-05T09:51:57.187Z,3.07
2023-06-05T09:54:27.534Z,2.57
2023-06-05T09:56:58.002Z,2.83
2023-06-05T09:59:29.955Z,2.47
2023-06-05T10:01:57.743Z,2.60
2023-06-05T10:04:27.575Z,2.60
2023-06-05T10:06:57.084Z,2.33
2023-06-05T10:09:26.336Z,2.80
2023-06-05T10:11:54.315Z,3.13
2023-06-05T10:14:22.387Z,2.60
2023-06-05T10:16:54.001Z,2.87
2023-06-05T10:19:22.171Z,2.40
2023-06-05T10:21:50.537Z,2.47
2023-06-05T10:24:23.809Z,2.37
2023-06-05T10:27:04.305Z,2.30
2023-06-05T10:29:38.650Z,2.07
2023-06-05T10:32:09.401Z,2.00
2023-06-05T10:34:36.951Z,2.60
2023-06-05T10:37:25.399Z,2.50
2023-06-05T10:39:53.219Z,2.40
2023-06-05T10:42:24.485Z,2.63
2023-06-05T10:44:52.119Z,2.23
2023-06-05T10:47:35.093Z,2.50
2023-06-05T10:50:18.928Z,2.70
2023-06-05T10:52:47.258Z,2.60
2023-06-05T10:55:18.275Z,2.20
2023-06-05T10:57:59.296Z,2.30
2023-06-05T11:00:27.329Z,2.27
2023-06-05T11:02:55.255Z,2.40
2023-06-05T11:05:23.103Z,2.20
2023-06-05T11:08:10.863Z,2.00
2023-06-05T11:10:39.923Z,2.37
2023-06-05T11:13:09.175Z,2.27
2023-06-05T11:15:37.794Z,2.20
2023-06-05T11:18:23.988Z,2.43
2023-06-05T11:20:51.855Z,2.90
2023-06-05T11:23:19.801Z,2.20
2023-06-05T11:25:47.414Z,2.20
2023-06-05T11:28:14.994Z,2.40
2023-06-05T11:30:49.951Z,2.77
2023-06-05T11:33:19.574Z,2.03
2023-06-05T11:35:49.088Z,2.10
2023-06-05T11:38:19.806Z,2.60
2023-06-05T11:40:48.625Z,2.20
2023-06-05T11:43:16.466Z,2.00
2023-06-05T11:45:50.807Z,2.07
2023-06-05T11:48:18.593Z,1.93
2023-06-05T11:50:58.452Z,2.10
2023-06-05T11:53:26.768Z,2.07
2023-06-05T11:56:06.655Z,2.23
2023-06-05T11:58:38.984Z,2.23
2023-06-05T12:01:08.737Z,2.40
2023-06-05T12:03:37.795Z,2.10
2023-06-05T12:06:05.622Z,1.67
2023-06-05T12:08:34.501Z,1.90
2023-06-05T12:11:05.433Z,1.97
2023-06-05T12:13:49.304Z,2.23
2023-06-05T12:16:17.956Z,2.23
2023-06-05T12:18:46.405Z,2.27
2023-06-05T12:21:27.036Z,1.60
2023-06-05T12:24:04.515Z,1.67
2023-06-05T12:26:49.105Z,1.90
2023-06-05T12:29:17.663Z,1.93
2023-06-05T12:31:45.995Z,1.83
2023-06-05T12:34:16.401Z,1.80
2023-06-05T12:36:44.562Z,2.03
2023-06-05T12:39:13.492Z,1.70
2023-06-05T12:41:41.865Z,1.80
2023-06-05T12:44:09.632Z,1.60
2023-06-05T12:46:38.621Z,1.67
2023-06-05T12:49:06.648Z,2.30
2023-06-05T12:51:34.486Z,1.40
2023-06-05T12:54:02.144Z,1.73
2023-06-05T12:56:30.181Z,1.80
2023-06-05T12:58:59.052Z,2.00
2023-06-05T13:01:27.699Z,1.73
2023-06-05T13:03:56.192Z,2.13
2023-06-05T13:06:23.980Z,1.90
2023-06-05T13:08:52.802Z,2.13
2023-06-05T13:11:20.682Z,2.08
2023-06-05T13:13:48.925Z,2.05
2023-06-05T13:16:16.604Z,1.85
2023-06-05T13:18:44.206Z,1.95
2023-06-05T13:21:11.830Z,1.90
2023-06-05T13:23:39.573Z,1.60
2023-06-05T13:26:07.468Z,2.00
2023-06-05T13:28:35.159Z,2.17
2023-06-05T13:31:04.111Z,1.73
2023-06-05T13:33:33.982Z,1.93
2023-06-05T13:36:01.717Z,1.70
2023-06-05T13:38:29.868Z,2.00
2023-06-05T13:40:57.921Z,1.90
2023-06-05T13:43:25.576Z,2.07
2023-06-05T13:45:53.490Z,2.10
2023-06-05T13:48:21.072Z,2.00
2023-06-05T13:50:48.607Z,1.90
2023-06-05T13:53:16.255Z,1.97
2023-06-05T13:55:43.879Z,1.80
2023-06-05T13:58:12.435Z,2.10
2023-06-05T14:00:41.312Z,1.90
2023-06-05T14:03:08.981Z,1.83
2023-06-05T14:05:37.416Z,1.90
2023-06-05T14:08:04.986Z,1.73
2023-06-05T14:10:36.751Z,1.60
2023-06-05T14:13:04.660Z,2.50
2023-06-05T14:15:36.574Z,1.80
2023-06-05T14:18:05.348Z,1.77
2023-06-05T14:20:33.918Z,1.70
2023-06-05T14:23:02.998Z,1.90
2023-06-05T14:25:31.179Z,1.20
2023-06-05T14:28:00.194Z,1.80
2023-06-05T14:30:28.752Z,1.93
2023-06-05T14:32:56.937Z,2.00
2023-06-05T14:35:24.718Z,2.17
2023-06-05T14:37:53.037Z,2.00
2023-06-05T14:40:21.264Z,2.00
2023-06-05T14:42:48.866Z,1.60
2023-06-05T14:45:16.403Z,1.70
2023-06-05T14:47:45.186Z,2.07
2023-06-05T14:50:12.894Z,1.67
2023-06-05T14:52:40.524Z,2.60
2023-06-05T14:55:08.548Z,2.23
2023-06-05T14:57:37.213Z,2.07
2023-06-05T15:00:06.076Z,2.20
2023-06-05T15:02:34.314Z,2.10
2023-06-05T15:05:02.268Z,1.90
2023-06-05T15:07:40.058Z,2.03
2023-06-05T15:10:09.659Z,1.93
2023-06-05T15:12:37.712Z,2.07
2023-06-05T15:15:20.170Z,1.80
2023-06-05T15:17:49.004Z,1.80
2023-06-05T15:20:17.175Z,2.10
2023-06-05T15:22:45.016Z,2.17
2023-06-05T15:25:13.059Z,1.73
2023-06-05T15:27:41.037Z,2.03
2023-06-05T15:30:08.922Z,1.77
2023-06-05T15:32:36.577Z,2.27
2023-06-05T15:35:29.899Z,1.70
2023-06-05T15:37:57.552Z,1.47
2023-06-05T15:40:25.155Z,1.70
2023-06-05T15:43:05.828Z,1.90
2023-06-05T15:45:33.813Z,2.10
2023-06-05T15:48:01.487Z,1.97
2023-06-05T15:50:29.088Z,1.73
2023-06-05T15:52:56.709Z,2.00
2023-06-05T15:55:24.361Z,1.53
2023-06-05T15:57:52.118Z,1.90
2023-06-05T16:00:20.581Z,1.60
2023-06-05T16:02:48.958Z,1.90
2023-06-05T16:05:16.604Z,1.80
2023-06-05T16:07:44.180Z,1.80
2023-06-05T16:10:12.010Z,1.93
2023-06-05T16:12:39.608Z,1.67
2023-06-05T16:15:08.357Z,1.80
2023-06-05T16:17:36.014Z,1.90
2023-06-05T16:20:03.846Z,2.10
2023-06-05T16:22:32.456Z,1.57
2023-06-05T16:25:00.259Z,1.73
2023-06-05T16:27:27.928Z,2.20
2023-06-05T16:29:55.864Z,1.70
2023-06-05T16:32:24.070Z,1.90
2023-06-05T16:34:51.779Z,2.10
2023-06-05T16:37:19.372Z,1.90
2023-06-05T16:39:47.320Z,1.90
2023-06-05T16:42:14.940Z,1.80
2023-06-05T16:44:42.530Z,2.00
2023-06-05T16:47:10.171Z,1.90
2023-06-05T16:49:38.480Z,2.10
2023-06-05T16:52:06.145Z,2.00
2023-06-05T16:54:34.541Z,1.97
2023-06-05T16:57:03.840Z,1.87
2023-06-05T16:59:31.435Z,2.00
2023-06-05T17:01:59.409Z,1.80
2023-06-05T17:04:27.814Z,1.93
2023-06-05T17:06:55.766Z,1.80
2023-06-05T17:09:24.791Z,2.07
2023-06-05T17:11:53.826Z,2.10
2023-06-05T17:14:21.370Z,2.57
2023-06-05T17:16:48.928Z,1.90
2023-06-05T17:19:17.744Z,2.30
2023-06-05T17:21:45.389Z,2.30
2023-06-05T17:24:12.964Z,1.90
2023-06-05T17:26:40.584Z,2.20
2023-06-05T17:29:08.184Z,2.50
2023-06-05T17:31:35.804Z,2.47
2023-06-05T17:34:03.555Z,2.17
2023-06-05T17:36:31.213Z,2.10
2023-06-05T17:38:58.855Z,2.00
2023-06-05T17:41:26.677Z,2.57
2023-06-05T17:43:55.629Z,2.60
2023-06-05T17:46:23.441Z,2.80
2023-06-05T17:48:51.311Z,2.30
2023-06-05T17:51:19.301Z,2.47
2023-06-05T17:53:47.102Z,2.30
2023-06-05T17:56:14.755Z,2.20
2023-06-05T17:58:42.530Z,2.37
2023-06-05T18:01:10.507Z,2.67
2023-06-05T18:03:38.659Z,2.80
2023-06-05T18:06:06.400Z,2.70
2023-06-05T18:08:35.703Z,2.87
2023-06-05T18:11:04.666Z,2.20
2023-06-05T18:13:32.873Z,2.90
2023-06-05T18:16:00.774Z,2.80
2023-06-05T18:18:28.357Z,3.60
2023-06-05T18:20:55.947Z,2.87
2023-06-05T18:23:23.584Z,3.57
2023-06-05T18:25:51.224Z,2.87
2023-06-05T18:28:19.475Z,2.60
2023-06-05T18:30:47.066Z,2.90
2023-06-05T18:33:16.394Z,3.10
2023-06-05T18:35:44.835Z,2.47
2023-06-05T18:38:12.747Z,2.80
2023-06-05T18:40:41.254Z,3.20
2023-06-05T18:43:09.003Z,3.60
2023-06-05T18:45:36.653Z,3.03
2023-06-05T18:48:04.804Z,3.00
2023-06-05T18:50:32.872Z,2.80
2023-06-05T18:53:00.507Z,3.03
2023-06-05T18:55:28.196Z,3.03
2023-06-05T18:57:55.866Z,3.30
2023-06-05T19:00:25.357Z,3.37
2023-06-05T19:02:53.169Z,3.20
2023-06-05T19:05:21.080Z,2.63
2023-06-05T19:07:48.995Z,3.00
2023-06-05T19:10:17.209Z,2.70
2023-06-05T19:12:45.720Z,2.93
2023-06-05T19:15:13.413Z,3.10
2023-06-05T19:17:41.364Z,2.80
2023-06-05T19:20:09.361Z,2.73
2023-06-05T19:22:37.066Z,2.80
2023-06-05T19:25:05.627Z,3.40
2023-06-05T19:27:33.331Z,3.50
2023-06-05T19:30:01.252Z,3.00
2023-06-05T19:32:29.160Z,2.87
2023-06-05T19:34:57.068Z,2.70
2023-06-05T19:37:25.778Z,2.90
2023-06-05T19:39:54.578Z,2.93
2023-06-05T19:42:22.305Z,2.90
2023-06-05T19:44:50.487Z,3.13
2023-06-05T19:47:18.206Z,3.33
2023-06-05T19:49:45.919Z,3.40
2023-06-05T19:52:13.572Z,3.40
2023-06-05T19:54:41.362Z,3.60
2023-06-05T19:57:10.610Z,3.40
2023-06-05T19:59:38.290Z,3.60
2023-06-05T20:02:06.382Z,3.13
2023-06-05T20:04:34.078Z,3.33
2023-06-05T20:07:01.803Z,3.73
2023-06-05T20:09:29.614Z,3.30
2023-06-05T20:11:58.914Z,3.77
2023-06-05T20:14:26.692Z,3.83
2023-06-05T20:16:54.764Z,3.90
2023-06-05T20:19:22.574Z,3.77
2023-06-05T20:21:50.501Z,4.50
2023-06-05T20:24:18.319Z,3.80
2023-06-05T20:26:46.302Z,3.43
2023-06-05T20:29:16.707Z,3.87
2023-06-05T20:31:44.564Z,4.10
2023-06-05T20:34:14.496Z,4.60
2023-06-05T20:36:43.126Z,3.70
2023-06-05T20:39:17.364Z,3.70
2023-06-05T20:41:50.837Z,4.40
2023-06-05T20:44:21.837Z,3.73
2023-06-05T20:46:53.096Z,3.90
2023-06-05T20:49:24.240Z,4.13
2023-06-05T20:51:52.104Z,4.37
2023-06-05T20:54:19.644Z,4.13
2023-06-05T20:56:48.449Z,5.10
2023-06-05T20:59:16.105Z,4.30
2023-06-05T21:01:43.908Z,3.40
2023-06-05T21:04:11.724Z,4.63
2023-06-05T21:06:40.285Z,3.70
2023-06-05T21:09:09.447Z,4.10
2023-06-05T21:11:37.052Z,3.90
2023-06-05T21:14:04.619Z,4.57
2023-06-05T21:16:32.827Z,3.80
2023-06-05T21:19:00.398Z,5.13
2023-06-05T21:21:28.320Z,4.50
2023-06-05T21:23:56.021Z,4.00
2023-06-05T21:26:24.492Z,4.57
2023-06-05T21:28:52.397Z,5.07
2023-06-05T21:31:20.014Z,4.50
2023-06-05T21:33:47.620Z,4.70
2023-06-05T21:36:15.519Z,4.17
2023-06-05T21:38:43.639Z,4.30
2023-06-05T21:41:11.420Z,4.90
2023-06-05T21:43:39.141Z,4.07
2023-06-05T21:46:06.830Z,4.73
2023-06-05T21:48:34.416Z,4.87
2023-06-05T21:51:02.476Z,4.37
2023-06-05T21:53:30.191Z,3.97
2023-06-05T21:55:57.763Z,4.30
2023-06-05T21:58:25.726Z,4.70
2023-06-05T22:00:53.339Z,4.57
2023-06-05T22:03:20.955Z,5.17
2023-06-05T22:05:50.993Z,4.40
2023-06-05T22:08:18.535Z,4.87
2023-06-05T22:10:46.121Z,5.23
2023-06-05T22:13:13.885Z,4.93
2023-06-05T22:15:42.155Z,5.10
2023-06-05T22:18:12.724Z,4.40
2023-06-05T22:20:41.856Z,5.20
2023-06-05T22:23:09.511Z,6.20
2023-06-05T22:25:50.791Z,5.00
2023-06-05T22:28:19.923Z,4.73
2023-06-05T22:30:47.947Z,4.83
2023-06-05T22:33:15.712Z,5.93
2023-06-05T22:35:44.572Z,5.10
2023-06-05T22:38:12.657Z,5.90
2023-06-05T22:40:40.498Z,5.33
2023-06-05T22:43:08.610Z,4.43
2023-06-05T22:45:36.167Z,4.97
2023-06-05T22:48:03.810Z,4.83
2023-06-05T22:50:31.973Z,5.47
2023-06-05T22:53:01.567Z,5.40
2023-06-05T22:55:29.146Z,5.50
2023-06-05T22:57:57.458Z,6.13
2023-06-05T23:00:25.328Z,5.97
2023-06-05T23:02:52.977Z,5.47
2023-06-05T23:05:20.593Z,5.40
2023-06-05T23:07:49.626Z,5.63
2023-06-05T23:10:17.291Z,5.83
2023-06-05T23:12:45.045Z,6.47
2023-06-05T23:15:13.433Z,5.20
2023-06-05T23:17:40.859Z,6.00
2023-06-05T23:20:08.709Z,5.93
2023-06-05T23:22:35.923Z,5.17
2023-06-05T23:25:04.429Z,5.43
2023-06-05T23:27:36.435Z,6.53
2023-06-05T23:30:04.458Z,5.83
2023-06-05T23:32:32.337Z,6.73
2023-06-05T23:34:59.557Z,6.63
2023-06-05T23:37:26.832Z,5.97
2023-06-05T23:39:54.123Z,6.70
2023-06-05T23:42:23.204Z,7.20
2023-06-05T23:44:50.930Z,5.93
2023-06-05T23:47:18.655Z,6.23
2023-06-05T23:49:47.481Z,6.37
2023-06-05T23:52:14.774Z,6.63
2023-06-05T23:54:42.036Z,7.10
2023-06-05T23:57:09.289Z,6.67
2023-06-05T23:59:36.502Z,6.80
